Time;durP1;ratioP1;P1;durP2;ratioP2;P2;SDS_P1;SDS_P2;PMS_P1;PMS_P2;Temp;Humidity;BMP_temperature;BMP_pressure;BME280_temperature;BME280_humidity;BME280_pressure;Samples;Min_cycle;Max_cycle;Signal;HPM_P1;HPM_P2
2022/06/30 00:00:43;;;;;;;9.60;7.78;;;21.10;99.90;;;;;;4956706;28;20046;-64
2022/06/30 00:03:09;;;;;;;9.02;7.53;;;21.10;99.90;;;;;;4956802;29;20027;-65
2022/06/30 00:05:35;;;;;;;9.60;7.65;;;21.10;99.90;;;;;;4956565;28;20031;-65
2022/06/30 00:08:02;;;;;;;9.68;7.35;;;21.10;99.90;;;;;;4956551;28;20023;-64
2022/06/30 00:10:28;;;;;;;8.32;6.93;;;21.20;99.90;;;;;;4956312;28;20503;-64
2022/06/30 00:12:55;;;;;;;9.93;8.00;;;21.10;99.90;;;;;;4956583;29;20066;-64
2022/06/30 00:15:21;;;;;;;8.98;7.20;;;21.20;99.90;;;;;;4956331;29;20034;-64
2022/06/30 00:17:48;;;;;;;10.45;7.78;;;21.20;99.90;;;;;;4956088;28;20075;-65
2022/06/30 00:20:14;;;;;;;8.32;7.38;;;21.20;99.90;;;;;;4956272;29;20028;-65
2022/06/30 00:22:40;;;;;;;8.73;7.72;;;21.20;99.90;;;;;;4956254;29;20531;-64
2022/06/30 00:25:06;;;;;;;11.07;8.63;;;21.20;99.90;;;;;;4955071;29;20080;-65
2022/06/30 00:27:33;;;;;;;11.63;8.02;;;21.20;99.90;;;;;;4956231;28;20036;-65
2022/06/30 00:29:59;;;;;;;9.48;7.97;;;21.20;99.90;;;;;;4956091;29;20094;-65
2022/06/30 00:32:26;;;;;;;9.88;8.27;;;21.20;99.90;;;;;;4956289;29;20035;-65
2022/06/30 00:34:52;;;;;;;9.97;7.70;;;21.20;99.90;;;;;;4955038;29;20027;-64
2022/06/30 00:37:18;;;;;;;9.73;8.32;;;21.30;99.90;;;;;;4956038;29;20027;-64
2022/06/30 00:39:44;;;;;;;10.52;8.05;;;21.30;99.90;;;;;;4956027;28;20027;-65
2022/06/30 00:42:10;;;;;;;9.63;7.97;;;21.30;99.90;;;;;;4955882;29;20031;-64
2022/06/30 00:44:36;;;;;;;8.60;7.70;;;21.40;99.90;;;;;;4956011;28;20117;-65
2022/06/30 00:47:05;;;;;;;10.07;7.93;;;21.40;99.80;;;;;;4955979;29;20035;-65
2022/06/30 00:49:32;;;;;;;8.68;7.15;;;21.50;99.70;;;;;;4955932;28;20066;-64
2022/06/30 00:52:01;;;;;;;9.35;7.70;;;21.40;99.70;;;;;;4956266;29;20105;-64
2022/06/30 00:54:28;;;;;;;8.98;7.95;;;21.40;99.60;;;;;;4956271;28;20479;-64
2022/06/30 00:56:55;;;;;;;9.38;7.90;;;21.50;99.60;;;;;;4955689;28;20031;-64
2022/06/30 00:59:22;;;;;;;7.95;6.90;;;21.50;99.50;;;;;;4955616;28;20050;-64
2022/06/30 01:01:49;;;;;;;8.70;7.80;;;21.50;99.50;;;;;;4955653;29;20033;-65
2022/06/30 01:04:16;;;;;;;10.20;7.80;;;21.50;99.50;;;;;;4955629;29;20042;-64
2022/06/30 01:06:45;;;;;;;8.80;7.30;;;21.50;99.40;;;;;;4955347;28;20031;-64
2022/06/30 01:12:41;;;;;;;8.25;6.82;;;21.50;99.40;;;;;;4955110;28;20023;-64
2022/06/30 01:14:43;;;;;;;8.05;6.88;;;21.50;99.30;;;;;;4955705;28;20393;-65
2022/06/30 01:17:10;;;;;;;10.05;7.95;;;21.50;99.30;;;;;;4955270;29;20113;-64
2022/06/30 01:19:36;;;;;;;11.32;7.65;;;21.50;99.30;;;;;;4955109;28;20448;-64
2022/06/30 01:22:03;;;;;;;8.60;7.15;;;21.50;99.30;;;;;;4955413;28;20118;-64
2022/06/30 01:24:29;;;;;;;8.20;7.32;;;21.50;99.30;;;;;;4955493;29;20039;-64
2022/06/30 01:26:56;;;;;;;8.98;7.07;;;21.50;99.40;;;;;;4955083;29;20526;-64
2022/06/30 01:29:23;;;;;;;9.70;7.18;;;21.40;99.40;;;;;;4954973;28;20120;-65
2022/06/30 01:31:50;;;;;;;9.77;7.70;;;21.40;99.50;;;;;;4954986;29;20035;-65
2022/06/30 01:34:16;;;;;;;9.70;7.15;;;21.40;99.50;;;;;;4954934;28;20079;-64
2022/06/30 01:36:42;;;;;;;8.07;7.07;;;21.40;99.60;;;;;;4954843;29;20039;-65
2022/06/30 01:39:08;;;;;;;8.45;7.35;;;21.30;99.60;;;;;;4955068;28;20031;-64
2022/06/30 01:41:34;;;;;;;7.90;6.93;;;21.30;99.60;;;;;;4954971;29;20503;-64
2022/06/30 01:44:00;;;;;;;8.35;7.30;;;21.30;99.70;;;;;;4954805;28;20031;-63
2022/06/30 01:46:26;;;;;;;9.75;7.65;;;21.30;99.70;;;;;;4954741;29;20500;-65
2022/06/30 01:48:52;;;;;;;10.27;6.97;;;21.20;99.80;;;;;;4954546;28;20031;-64
2022/06/30 01:51:18;;;;;;;10.07;7.68;;;21.20;99.80;;;;;;4954711;29;20023;-65
2022/06/30 01:53:44;;;;;;;8.52;7.18;;;21.20;99.90;;;;;;4954645;29;20026;-64
2022/06/30 01:56:10;;;;;;;8.90;7.00;;;21.20;99.90;;;;;;4954555;29;20031;-64
2022/06/30 01:58:36;;;;;;;9.23;7.40;;;21.20;99.90;;;;;;4954442;28;20023;-65
2022/06/30 02:01:02;;;;;;;7.88;7.07;;;21.10;99.90;;;;;;4954616;29;20090;-64
2022/06/30 02:03:28;;;;;;;9.05;7.78;;;21.10;99.90;;;;;;4954455;28;20023;-64
2022/06/30 02:05:54;;;;;;;9.43;7.80;;;21.00;99.90;;;;;;4954271;29;20038;-64
2022/06/30 02:08:20;;;;;;;9.63;7.85;;;21.10;99.90;;;;;;4954474;28;20098;-64
2022/06/30 02:10:46;;;;;;;8.63;7.65;;;21.00;99.90;;;;;;4954323;29;20400;-64
2022/06/30 02:13:12;;;;;;;10.35;8.10;;;21.00;99.90;;;;;;4953235;29;20039;-64
2022/06/30 02:15:38;;;;;;;9.57;8.00;;;21.00;99.90;;;;;;4954082;29;20031;-65
2022/06/30 02:18:06;;;;;;;9.65;8.10;;;21.00;99.90;;;;;;4954273;28;20050;-65
2022/06/30 02:20:32;;;;;;;9.05;8.07;;;21.00;99.90;;;;;;4953925;28;20110;-63
2022/06/30 02:23:01;;;;;;;9.73;7.70;;;21.00;99.90;;;;;;4953726;29;20027;-64
2022/06/30 02:25:29;;;;;;;9.32;8.20;;;21.00;99.90;;;;;;4954262;29;20098;-64
2022/06/30 02:27:55;;;;;;;10.25;8.25;;;21.00;99.90;;;;;;4953934;28;20135;-64
2022/06/30 02:30:22;;;;;;;9.40;8.40;;;21.00;99.90;;;;;;4953804;29;20062;-64
2022/06/30 02:32:48;;;;;;;12.52;9.32;;;21.00;99.90;;;;;;4952920;29;20031;-64
2022/06/30 02:35:15;;;;;;;10.68;8.50;;;21.00;99.90;;;;;;4954061;29;20098;-64
2022/06/30 02:37:41;;;;;;;11.57;8.95;;;21.10;99.90;;;;;;4953937;28;20106;-64
2022/06/30 02:40:08;;;;;;;11.55;8.45;;;21.00;99.90;;;;;;4953625;28;20131;-64
2022/06/30 02:42:34;;;;;;;8.98;8.02;;;21.00;99.90;;;;;;4953809;29;20480;-64
2022/06/30 02:45:00;;;;;;;11.40;8.60;;;21.00;99.90;;;;;;4953768;29;20028;-65
2022/06/30 02:47:35;;;;;;;10.02;8.95;;;20.90;99.90;;;;;;4953692;28;20035;-64
2022/06/30 02:50:03;;;;;;;10.35;8.50;;;20.90;99.90;;;;;;4953476;29;20480;-65
2022/06/30 02:52:33;;;;;;;9.90;8.45;;;20.90;99.90;;;;;;4953707;29;20063;-64
2022/06/30 02:55:01;;;;;;;10.85;9.23;;;20.90;99.90;;;;;;4953625;29;20037;-64
2022/06/30 02:57:27;;;;;;;10.93;8.57;;;20.80;99.90;;;;;;4953389;28;20027;-64
2022/06/30 02:59:53;;;;;;;10.38;7.95;;;20.80;99.90;;;;;;4953388;29;20468;-64
2022/06/30 03:02:19;;;;;;;12.02;8.55;;;20.80;99.90;;;;;;4953545;28;20060;-64
2022/06/30 03:04:45;;;;;;;9.00;8.10;;;20.70;99.90;;;;;;4953667;29;20046;-65
2022/06/30 03:07:11;;;;;;;10.75;8.68;;;20.60;99.90;;;;;;4953264;29;20035;-64
2022/06/30 03:09:38;;;;;;;11.88;8.55;;;20.60;99.90;;;;;;4953216;28;20027;-65
2022/06/30 03:12:04;;;;;;;10.20;8.60;;;20.60;99.90;;;;;;4953335;29;20034;-64
2022/06/30 03:14:30;;;;;;;12.43;9.60;;;20.50;99.90;;;;;;4953452;28;20062;-64
2022/06/30 03:16:56;;;;;;;15.65;12.27;;;20.50;99.90;;;;;;4953223;29;20059;-64
2022/06/30 03:19:22;;;;;;;19.85;14.38;;;20.50;99.90;;;;;;4953066;28;20052;-65
2022/06/30 03:21:49;;;;;;;21.35;14.27;;;20.40;99.90;;;;;;4953508;28;20107;-65
2022/06/30 03:24:15;;;;;;;18.60;13.40;;;20.40;99.90;;;;;;4953044;29;20040;-64
2022/06/30 03:26:41;;;;;;;18.50;13.82;;;20.40;99.90;;;;;;4952935;28;20031;-64
2022/06/30 03:29:07;;;;;;;17.90;12.75;;;20.40;99.90;;;;;;4952846;28;20090;-65
2022/06/30 03:31:33;;;;;;;15.10;11.43;;;20.30;99.90;;;;;;4952944;29;20444;-64
2022/06/30 03:33:59;;;;;;;15.60;11.80;;;20.30;99.90;;;;;;4953032;28;20411;-63
2022/06/30 03:36:25;;;;;;;16.85;11.65;;;20.30;99.90;;;;;;4952840;29;20059;-65
2022/06/30 03:38:51;;;;;;;14.57;11.43;;;20.20;99.90;;;;;;4952861;28;20031;-64
2022/06/30 03:41:17;;;;;;;15.77;11.85;;;20.20;99.90;;;;;;4953419;29;20031;-64
2022/06/30 03:43:43;;;;;;;12.55;10.57;;;20.20;99.90;;;;;;4952924;29;20031;-65
2022/06/30 03:46:09;;;;;;;12.95;10.68;;;20.30;99.90;;;;;;4953162;29;20400;-65
2022/06/30 03:48:36;;;;;;;13.43;10.82;;;20.30;99.90;;;;;;4952883;28;20031;-64
2022/06/30 03:51:03;;;;;;;12.68;10.55;;;20.30;99.90;;;;;;4952901;28;20039;-65
2022/06/30 03:53:29;;;;;;;12.93;10.65;;;20.30;99.90;;;;;;4953091;28;20027;-65
2022/06/30 03:55:56;;;;;;;14.50;10.95;;;20.30;99.90;;;;;;4952682;28;20027;-65
2022/06/30 03:58:23;;;;;;;14.52;11.68;;;20.40;99.90;;;;;;4952927;28;20031;-65
2022/06/30 04:00:49;;;;;;;15.15;11.13;;;20.30;99.90;;;;;;4952927;28;20039;-64
2022/06/30 04:03:15;;;;;;;16.65;11.88;;;20.40;99.90;;;;;;4952823;28;20032;-65
2022/06/30 04:05:41;;;;;;;15.30;11.27;;;20.40;99.90;;;;;;4952809;28;20032;-64
2022/06/30 04:08:07;;;;;;;14.70;12.18;;;20.40;99.90;;;;;;4952909;28;20023;-65
2022/06/30 04:10:34;;;;;;;14.88;11.98;;;20.30;99.90;;;;;;4952572;28;20116;-64
2022/06/30 04:13:00;;;;;;;16.30;12.88;;;20.40;99.90;;;;;;4952758;29;20023;-64
2022/06/30 04:15:28;;;;;;;16.33;12.40;;;20.30;99.90;;;;;;4952638;29;20055;-64
2022/06/30 04:17:54;;;;;;;13.90;12.00;;;20.40;99.90;;;;;;4952589;28;20054;-64
2022/06/30 04:20:20;;;;;;;17.73;12.63;;;20.30;99.90;;;;;;4952629;28;20027;-65
2022/06/30 04:22:50;;;;;;;14.43;12.00;;;20.30;99.90;;;;;;4952665;29;20447;-64
2022/06/30 04:25:17;;;;;;;16.58;12.52;;;20.30;99.90;;;;;;4952550;28;20038;-64
2022/06/30 04:27:45;;;;;;;16.58;12.90;;;20.30;99.90;;;;;;4952655;28;20023;-65
2022/06/30 04:30:12;;;;;;;16.77;13.80;;;20.30;99.90;;;;;;4966610;23;20321;-67
2022/06/30 04:32:38;;;;;;;17.50;13.35;;;20.30;99.90;;;;;;4952689;28;20023;-67
2022/06/30 04:35:12;;;;;;;16.42;13.18;;;20.30;99.90;;;;;;4952333;28;20058;-67
2022/06/30 04:37:39;;;;;;;16.88;12.70;;;20.40;99.90;;;;;;4952146;28;20027;-67
2022/06/30 04:42:50;;;;;;;18.42;13.35;;;20.40;99.90;;;;;;4952449;28;20059;-68
2022/06/30 04:45:16;;;;;;;18.25;12.57;;;20.50;99.90;;;;;;4952871;28;20452;-67
2022/06/30 04:47:42;;;;;;;14.63;11.85;;;20.50;99.90;;;;;;4955708;28;20031;-68
2022/06/30 04:50:08;;;;;;;14.45;11.77;;;20.50;99.90;;;;;;4955527;28;20082;-68
2022/06/30 04:52:34;;;;;;;15.40;12.38;;;20.50;99.90;;;;;;4955646;28;20042;-68
2022/06/30 04:55:01;;;;;;;14.25;12.32;;;20.60;99.90;;;;;;4955637;28;20031;-68
2022/06/30 04:57:27;;;;;;;15.38;12.57;;;20.50;99.90;;;;;;4955554;28;20082;-67
2022/06/30 04:59:53;;;;;;;17.05;11.43;;;20.60;99.90;;;;;;4955314;28;20027;-68
2022/06/30 05:02:19;;;;;;;13.73;11.52;;;20.60;99.90;;;;;;4955560;29;20023;-67
2022/06/30 05:04:45;;;;;;;13.77;11.52;;;20.60;99.90;;;;;;4955554;28;20035;-68
2022/06/30 05:07:11;;;;;;;14.02;11.57;;;20.60;99.90;;;;;;4955128;29;20377;-67
2022/06/30 05:09:37;;;;;;;15.55;11.65;;;20.60;99.90;;;;;;4955193;28;20042;-68
2022/06/30 05:12:04;;;;;;;13.15;10.90;;;20.70;99.90;;;;;;4955291;29;20027;-68
2022/06/30 05:14:30;;;;;;;17.90;11.85;;;20.70;99.90;;;;;;4955244;29;20039;-68
2022/06/30 05:16:56;;;;;;;15.00;11.32;;;20.80;99.90;;;;;;4955184;28;20032;-68
2022/06/30 05:19:22;;;;;;;16.55;11.10;;;20.80;99.90;;;;;;4955134;28;20023;-68
2022/06/30 05:21:48;;;;;;;14.95;11.30;;;20.90;99.90;;;;;;4955065;28;20489;-68
2022/06/30 05:26:58;;;;;;;15.60;10.80;;;20.90;99.90;;;;;;4954961;28;20034;-67
2022/06/30 05:29:24;;;;;;;16.35;11.48;;;20.90;99.90;;;;;;4954726;28;20106;-67
2022/06/30 05:31:50;;;;;;;18.60;11.40;;;21.00;99.90;;;;;;4955005;28;20035;-68
2022/06/30 05:34:16;;;;;;;16.30;11.02;;;21.00;99.90;;;;;;4954900;29;20476;-69
2022/06/30 05:36:42;;;;;;;14.98;10.80;;;21.00;99.90;;;;;;4954862;29;20114;-68
2022/06/30 05:39:07;;;;;;;12.73;10.38;;;21.10;99.90;;;;;;4954581;28;20070;-67
2022/06/30 05:41:33;;;;;;;13.75;11.55;;;21.10;99.90;;;;;;4954877;28;20047;-68
2022/06/30 05:43:59;;;;;;;13.02;11.05;;;21.10;99.90;;;;;;4954822;28;20070;-68
2022/06/30 05:46:25;;;;;;;16.95;12.80;;;21.20;99.90;;;;;;4954761;28;20019;-68
2022/06/30 05:48:51;;;;;;;18.60;13.45;;;21.20;99.90;;;;;;4953253;28;20054;-68
2022/06/30 05:51:17;;;;;;;17.08;12.30;;;21.20;99.90;;;;;;4954650;28;20315;-68
2022/06/30 05:53:43;;;;;;;18.48;13.48;;;21.30;99.90;;;;;;4954656;28;20051;-67
2022/06/30 05:56:09;;;;;;;16.70;13.18;;;21.40;99.90;;;;;;4953158;28;20442;-68
2022/06/30 05:58:35;;;;;;;16.08;12.77;;;21.40;99.90;;;;;;4954395;28;20023;-67
2022/06/30 06:01:01;;;;;;;14.60;12.13;;;21.40;99.90;;;;;;4954284;28;20031;-68
2022/06/30 06:03:26;;;;;;;18.15;14.15;;;21.50;99.90;;;;;;4954433;29;20535;-68
2022/06/30 06:05:52;;;;;;;18.75;13.65;;;21.50;99.90;;;;;;4954248;29;20558;-68
2022/06/30 06:08:18;;;;;;;17.88;13.50;;;21.50;99.90;;;;;;4954460;28;20034;-68
2022/06/30 06:10:44;;;;;;;16.83;12.40;;;21.60;99.90;;;;;;4954262;29;20535;-68
2022/06/30 06:13:13;;;;;;;13.90;11.23;;;21.60;99.90;;;;;;4954271;28;20042;-68
2022/06/30 06:15:39;;;;;;;13.73;11.95;;;21.70;99.90;;;;;;4953995;28;20078;-67
2022/06/30 06:18:05;;;;;;;14.23;11.68;;;21.70;99.90;;;;;;4954100;28;20055;-68
2022/06/30 06:20:31;;;;;;;15.15;12.05;;;21.70;99.90;;;;;;4953844;28;20034;-68
2022/06/30 06:22:57;;;;;;;14.38;11.32;;;21.70;99.90;;;;;;4954164;28;20050;-68
2022/06/30 06:25:23;;;;;;;13.15;11.05;;;21.70;99.90;;;;;;4954080;28;20043;-68
2022/06/30 06:30:34;;;;;;;15.32;11.77;;;21.80;99.90;;;;;;4953575;28;20035;-68
2022/06/30 06:33:00;;;;;;;14.48;11.10;;;21.80;99.90;;;;;;4953967;28;20039;-68
2022/06/30 06:35:26;;;;;;;13.57;11.15;;;21.90;99.90;;;;;;4953699;29;20113;-68
2022/06/30 06:37:52;;;;;;;13.25;10.43;;;21.90;99.90;;;;;;4953921;28;20063;-68
2022/06/30 06:40:18;;;;;;;14.48;10.63;;;21.90;99.90;;;;;;4953556;29;20079;-68
2022/06/30 06:42:44;;;;;;;12.45;10.20;;;22.00;99.90;;;;;;4953962;29;20035;-68
2022/06/30 06:45:10;;;;;;;12.90;9.48;;;22.00;99.90;;;;;;4953678;28;20046;-68
2022/06/30 06:47:36;;;;;;;30.02;10.85;;;22.10;99.90;;;;;;4953651;28;20035;-68
2022/06/30 06:50:03;;;;;;;12.73;9.35;;;22.10;99.90;;;;;;4953331;28;20050;-68
2022/06/30 06:52:28;;;;;;;14.38;8.57;;;22.20;99.90;;;;;;4952414;29;20034;-68
2022/06/30 06:54:54;;;;;;;12.48;8.45;;;22.30;99.90;;;;;;4952133;29;20043;-68
2022/06/30 06:57:20;;;;;;;11.68;8.27;;;22.20;99.90;;;;;;4953274;28;20023;-68
2022/06/30 06:59:46;;;;;;;11.52;8.40;;;22.30;99.90;;;;;;4953047;29;20456;-68
2022/06/30 07:02:12;;;;;;;14.85;9.45;;;22.30;99.90;;;;;;4953221;28;20492;-68
2022/06/30 07:04:38;;;;;;;12.60;8.73;;;22.30;99.90;;;;;;4953292;29;20030;-68
2022/06/30 07:07:04;;;;;;;10.82;8.43;;;22.30;99.90;;;;;;4952894;28;20441;-68
2022/06/30 07:09:30;;;;;;;14.10;8.63;;;22.30;99.90;;;;;;4953125;28;20134;-68
2022/06/30 07:11:56;;;;;;;12.45;8.20;;;22.40;99.90;;;;;;4953037;29;20130;-68
2022/06/30 07:14:22;;;;;;;9.23;6.82;;;22.40;99.90;;;;;;4953346;29;20058;-67
2022/06/30 07:16:47;;;;;;;10.85;7.38;;;22.40;99.90;;;;;;4953194;29;20031;-68
2022/06/30 07:19:13;;;;;;;13.50;7.20;;;22.50;99.90;;;;;;4952822;28;20029;-68
2022/06/30 07:21:39;;;;;;;11.50;7.05;;;22.50;99.90;;;;;;4953136;29;20031;-68
2022/06/30 07:24:05;;;;;;;12.73;6.10;;;22.50;99.80;;;;;;4953075;29;20019;-68
2022/06/30 07:26:31;;;;;;;10.27;6.13;;;22.50;98.90;;;;;;4951739;29;20035;-68
2022/06/30 07:28:57;;;;;;;8.15;6.20;;;22.60;98.00;;;;;;4952855;28;20027;-69
2022/06/30 07:31:23;;;;;;;9.68;5.38;;;22.60;98.10;;;;;;4952802;28;20046;-68
2022/06/30 07:33:49;;;;;;;9.15;5.43;;;22.60;98.10;;;;;;4952823;28;20137;-68
2022/06/30 07:36:16;;;;;;;7.53;5.72;;;22.60;98.20;;;;;;4952941;29;20102;-68
2022/06/30 07:38:44;;;;;;;6.45;5.35;;;22.60;98.30;;;;;;4952658;28;20073;-69
2022/06/30 07:41:10;;;;;;;12.38;6.95;;;22.60;98.40;;;;;;4951680;29;20488;-67
2022/06/30 07:43:37;;;;;;;10.32;6.28;;;22.70;98.20;;;;;;4952889;29;20031;-69
2022/06/30 07:46:04;;;;;;;10.73;5.78;;;22.70;98.00;;;;;;4952816;29;20031;-69
2022/06/30 07:48:30;;;;;;;11.88;6.88;;;22.70;98.00;;;;;;4952711;28;20055;-69
2022/06/30 07:50:56;;;;;;;11.35;5.43;;;22.70;97.70;;;;;;4952797;28;20521;-67
2022/06/30 07:53:22;;;;;;;7.65;5.20;;;22.80;97.30;;;;;;4952776;29;20660;-67
2022/06/30 07:55:48;;;;;;;7.90;5.30;;;22.80;97.10;;;;;;4952579;29;20051;-68
2022/06/30 07:58:14;;;;;;;9.55;5.15;;;22.80;97.20;;;;;;4952714;28;20515;-68
2022/06/30 08:00:40;;;;;;;9.63;4.00;;;22.80;96.90;;;;;;4952634;29;20560;-69
2022/06/30 08:03:06;;;;;;;7.70;4.22;;;22.90;95.60;;;;;;4952695;29;20027;-68
2022/06/30 08:05:32;;;;;;;6.47;4.10;;;23.00;95.20;;;;;;4951482;29;20515;-68
2022/06/30 08:07:58;;;;;;;9.57;4.60;;;23.00;95.20;;;;;;4952595;28;20074;-68
2022/06/30 08:10:26;;;;;;;11.25;5.20;;;23.10;95.00;;;;;;4952323;29;20444;-68
2022/06/30 08:12:52;;;;;;;11.15;5.50;;;23.10;94.90;;;;;;4952605;29;20055;-68
2022/06/30 08:15:18;;;;;;;10.15;4.72;;;23.10;94.40;;;;;;4952988;28;20495;-68
2022/06/30 08:17:44;;;;;;;11.15;5.10;;;23.20;93.60;;;;;;4952427;28;20023;-68
2022/06/30 08:20:10;;;;;;;10.15;5.47;;;23.20;93.30;;;;;;4953999;28;20030;-67
2022/06/30 08:22:36;;;;;;;9.98;5.28;;;23.30;93.60;;;;;;4955062;29;20373;-68
2022/06/30 08:25:02;;;;;;;9.63;4.25;;;23.40;93.10;;;;;;4955974;29;20027;-68
2022/06/30 08:27:28;;;;;;;9.73;3.80;;;23.50;92.70;;;;;;4956031;28;20034;-68
2022/06/30 08:29:54;;;;;;;8.95;4.45;;;23.50;92.80;;;;;;4955756;29;20118;-68
2022/06/30 08:32:20;;;;;;;7.15;4.10;;;23.50;92.30;;;;;;4955970;28;20101;-69
2022/06/30 08:34:48;;;;;;;7.35;4.07;;;23.60;92.20;;;;;;4955862;29;20054;-68
2022/06/30 08:37:14;;;;;;;7.53;3.85;;;23.60;92.20;;;;;;4955887;29;20027;-68
2022/06/30 08:42:25;;;;;;;8.10;4.20;;;23.50;91.70;;;;;;4955903;28;20043;-69
2022/06/30 08:47:37;;;;;;;7.30;2.90;;;23.60;90.70;;;;;;4954321;28;20031;-68
2022/06/30 08:50:05;;;;;;;5.72;3.20;;;23.60;90.80;;;;;;4955441;29;20136;-67
2022/06/30 08:52:32;;;;;;;10.18;3.97;;;23.60;90.90;;;;;;4955760;29;20027;-68
2022/06/30 08:55:00;;;;;;;10.65;3.25;;;23.50;91.20;;;;;;4955896;29;20063;-69
2022/06/30 08:57:28;;;;;;;7.18;3.17;;;23.60;90.40;;;;;;4955541;28;20023;-68
2022/06/30 08:59:54;;;;;;;7.88;3.42;;;23.60;90.30;;;;;;4955594;29;20029;-68
2022/06/30 09:02:20;;;;;;;8.40;2.85;;;23.70;90.00;;;;;;4955518;29;20383;-68
2022/06/30 09:04:46;;;;;;;5.47;2.45;;;23.80;90.10;;;;;;4955435;28;20023;-67
2022/06/30 09:07:12;;;;;;;8.68;2.53;;;23.80;89.00;;;;;;4955445;29;20032;-69
2022/06/30 09:09:38;;;;;;;7.68;2.72;;;23.80;88.20;;;;;;4955171;28;20440;-69
2022/06/30 09:12:17;;;;;;;7.15;2.40;;;23.90;88.60;;;;;;4955645;29;20484;-68
2022/06/30 09:14:47;;;;;;;6.70;2.65;;;23.90;87.40;;;;;;4955280;29;20034;-68
2022/06/30 09:17:16;;;;;;;6.22;2.47;;;24.00;88.30;;;;;;4953811;29;20062;-69
2022/06/30 09:19:52;;;;;;;;;;;24.10;89.40;;;;;;4954267;28;20027;-68
2022/06/30 09:22:19;;;;;;;8.25;3.10;;;24.10;89.20;;;;;;4955212;28;19910;-68
2022/06/30 09:24:45;;;;;;;6.45;2.80;;;24.00;89.30;;;;;;4955402;29;20414;-68
2022/06/30 09:27:20;;;;;;;6.78;3.40;;;24.10;89.40;;;;;;4955016;28;20370;-68
2022/06/30 09:30:09;;;;;;;7.47;4.03;;;24.10;89.50;;;;;;4954865;29;20042;-69
2022/06/30 09:32:53;;;;;;;9.18;4.60;;;24.10;90.10;;;;;;4954857;29;20046;-67
2022/06/30 09:35:22;;;;;;;7.25;3.90;;;24.20;90.40;;;;;;4954970;29;20243;-68
2022/06/30 09:38:14;;;;;;;7.93;3.65;;;24.20;90.40;;;;;;4954618;28;20514;-68
2022/06/30 09:43:34;;;;;;;5.90;2.58;;;24.20;90.00;;;;;;4954973;28;20428;-68
2022/06/30 09:46:00;;;;;;;5.95;2.50;;;24.20;89.90;;;;;;4954678;29;20050;-68
2022/06/30 09:48:28;;;;;;;8.63;3.10;;;24.30;89.00;;;;;;4954583;28;20098;-67
2022/06/30 09:51:02;;;;;;;7.43;3.50;;;24.30;87.40;;;;;;4954726;29;20086;-68
2022/06/30 09:53:29;;;;;;;6.75;3.40;;;24.30;87.30;;;;;;4954526;29;20037;-68
2022/06/30 09:55:56;;;;;;;6.25;2.90;;;24.30;87.00;;;;;;4954354;29;20114;-68
2022/06/30 09:58:31;;;;;;;7.13;3.30;;;24.40;87.10;;;;;;4954346;28;20047;-68
2022/06/30 10:00:59;;;;;;;7.63;2.70;;;24.40;86.90;;;;;;4953133;29;20031;-67
2022/06/30 10:03:25;;;;;;;7.32;3.45;;;24.50;88.60;;;;;;4954414;29;20032;-68
2022/06/30 10:06:11;;;;;;;10.32;3.85;;;24.50;88.60;;;;;;4954419;28;20033;-68
2022/06/30 10:08:37;;;;;;;6.97;3.30;;;24.50;89.00;;;;;;4954176;28;20038;-68
2022/06/30 10:11:04;;;;;;;34.22;5.07;;;24.50;89.30;;;;;;4954584;29;20408;-68
2022/06/30 10:13:34;;;;;;;11.93;3.60;;;24.50;89.50;;;;;;4954578;28;20135;-68
2022/06/30 10:16:03;;;;;;;8.95;3.58;;;24.70;88.60;;;;;;4954053;29;20066;-68
2022/06/30 10:18:32;;;;;;;7.75;3.13;;;24.60;88.80;;;;;;4954049;28;20042;-68
2022/06/30 10:20:58;;;;;;;7.57;3.20;;;24.70;88.20;;;;;;4954432;29;20156;-68
2022/06/30 10:23:24;;;;;;;7.68;3.10;;;24.70;87.20;;;;;;4953955;29;20031;-67
2022/06/30 10:25:52;;;;;;;6.80;3.20;;;24.80;86.10;;;;;;4953882;28;20480;-68
2022/06/30 10:28:21;;;;;;;6.80;2.88;;;24.80;85.50;;;;;;4954021;28;20128;-68
2022/06/30 10:31:06;;;;;;;6.30;2.95;;;24.90;87.10;;;;;;4966872;23;20062;-70
2022/06/30 10:33:59;;;;;;;5.68;3.47;;;25.00;87.70;;;;;;4953830;29;20027;-69
2022/06/30 10:36:37;;;;;;;3.65;2.28;;;25.00;87.30;;;;;;4953403;28;20420;-70
2022/06/30 10:39:06;;;;;;;6.43;2.45;;;25.10;86.70;;;;;;4953575;28;20420;-70
2022/06/30 10:41:32;;;;;;;5.55;2.08;;;25.10;86.30;;;;;;4953635;28;20023;-70
2022/06/30 10:44:04;;;;;;;8.30;2.80;;;25.10;86.10;;;;;;4951860;29;20049;-70
2022/06/30 10:46:32;;;;;;;5.28;2.53;;;25.20;84.50;;;;;;4953424;29;20067;-70
2022/06/30 10:48:58;;;;;;;4.18;2.35;;;25.30;83.60;;;;;;4953305;28;20027;-70
2022/06/30 10:51:25;;;;;;;5.45;2.53;;;25.20;82.20;;;;;;4953636;29;20045;-70
2022/06/30 10:53:52;;;;;;;4.15;2.33;;;25.30;82.70;;;;;;4953445;29;20053;-70
2022/06/30 10:56:20;;;;;;;4.13;2.50;;;25.30;82.60;;;;;;4953217;29;20069;-70
2022/06/30 10:59:06;;;;;;;6.53;2.40;;;25.30;84.20;;;;;;4936164;29;20090;-70
2022/06/30 11:01:32;;;;;;;4.47;2.28;;;25.40;82.50;;;;;;4953245;29;20354;-69
2022/06/30 11:03:58;;;;;;;4.75;2.60;;;25.40;82.40;;;;;;4953330;29;20028;-70
2022/06/30 11:06:44;;;;;;;8.77;3.38;;;25.50;85.40;;;;;;4953099;29;20035;-70
2022/06/30 11:09:09;;;;;;;8.00;3.00;;;25.60;87.60;;;;;;4952919;28;20046;-70
2022/06/30 11:11:36;;;;;;;6.82;2.90;;;25.60;87.60;;;;;;4953177;28;20039;-70
2022/06/30 11:14:02;;;;;;;7.18;3.10;;;25.60;86.50;;;;;;4953061;29;20086;-69
2022/06/30 11:16:29;;;;;;;5.40;2.40;;;25.80;85.90;;;;;;4952897;28;20043;-69
2022/06/30 11:18:55;;;;;;;5.38;3.00;;;25.70;85.10;;;;;;4951636;28;20074;-69
2022/06/30 11:21:21;;;;;;;6.00;2.70;;;25.80;84.80;;;;;;4952947;29;20396;-69
2022/06/30 11:23:49;;;;;;;7.20;3.05;;;25.80;85.50;;;;;;4953129;29;20035;-69
2022/06/30 11:29:03;;;;;;;7.95;3.00;;;25.90;85.50;;;;;;4952809;28;20027;-69
2022/06/30 11:31:34;;;;;;;8.00;3.72;;;25.90;85.50;;;;;;4952860;28;20381;-69
2022/06/30 11:34:05;;;;;;;7.22;3.22;;;25.90;85.90;;;;;;4952894;29;20031;-69
2022/06/30 11:36:35;;;;;;;8.57;3.17;;;25.90;86.90;;;;;;4952682;29;20031;-69
2022/06/30 11:39:05;;;;;;;7.32;2.80;;;25.90;87.20;;;;;;4952582;28;20068;-70
2022/06/30 11:44:18;;;;;;;6.18;2.78;;;25.90;85.20;;;;;;4953292;28;20411;-69
2022/06/30 11:47:11;;;;;;;7.93;2.60;;;26.00;84.20;;;;;;4952791;29;20424;-69
2022/06/30 11:49:46;;;;;;;6.57;2.60;;;26.00;83.30;;;;;;4951514;28;20031;-69
2022/06/30 11:52:16;;;;;;;7.43;2.97;;;26.10;83.40;;;;;;4952740;29;20035;-69
2022/06/30 11:54:56;;;;;;;8.30;2.80;;;26.10;82.70;;;;;;4955303;28;20476;-69
2022/06/30 11:57:28;;;;;;;5.57;2.70;;;26.10;82.90;;;;;;4956365;28;20388;-69
2022/06/30 12:00:05;;;;;;;8.32;3.47;;;26.10;82.00;;;;;;4956914;29;20118;-69
2022/06/30 12:02:33;;;;;;;4.75;2.22;;;26.10;81.60;;;;;;4956704;29;20038;-69
2022/06/30 12:05:00;;;;;;;6.32;2.70;;;26.10;81.90;;;;;;4956770;29;20474;-68
2022/06/30 12:07:28;;;;;;;6.43;2.33;;;26.10;80.90;;;;;;4956245;28;20031;-69
2022/06/30 12:09:55;;;;;;;5.55;2.45;;;26.20;81.00;;;;;;4956286;29;20027;-68
2022/06/30 12:12:26;;;;;;;5.28;2.60;;;26.30;81.70;;;;;;4956397;29;20038;-70
2022/06/30 12:14:54;;;;;;;8.43;3.33;;;26.20;82.80;;;;;;4955089;29;20122;-68
2022/06/30 12:17:21;;;;;;;9.20;4.03;;;26.20;83.40;;;;;;4956154;29;20027;-69
2022/06/30 12:19:48;;;;;;;7.22;3.30;;;26.30;83.80;;;;;;4954742;29;20515;-68
2022/06/30 12:22:14;;;;;;;6.88;2.60;;;26.30;82.70;;;;;;4956269;29;20027;-68
2022/06/30 12:24:41;;;;;;;6.90;2.72;;;26.40;82.50;;;;;;4956341;29;20087;-68
2022/06/30 12:27:09;;;;;;;7.13;3.10;;;26.30;82.40;;;;;;4956045;29;20027;-69
2022/06/30 12:29:34;;;;;;;3.75;2.50;;;26.40;83.20;;;;;;4955779;28;20086;-69
2022/06/30 12:32:06;;;;;;;5.78;2.17;;;26.50;82.60;;;;;;4956145;29;20035;-68
2022/06/30 12:34:46;;;;;;;5.90;3.10;;;26.70;81.50;;;;;;4956027;29;20031;-68
2022/06/30 12:37:12;;;;;;;6.18;2.67;;;26.80;79.80;;;;;;4954546;29;20031;-69
2022/06/30 12:39:44;;;;;;;8.95;2.67;;;27.00;78.10;;;;;;4955753;28;20027;-69
2022/06/30 12:42:11;;;;;;;7.30;2.55;;;27.10;77.80;;;;;;4955924;29;20027;-68
2022/06/30 12:44:38;;;;;;;4.88;2.92;;;27.10;78.10;;;;;;4955844;29;20029;-69
2022/06/30 12:47:05;;;;;;;6.13;3.35;;;27.20;78.00;;;;;;4955640;29;20038;-69
2022/06/30 12:49:32;;;;;;;11.07;4.72;;;27.30;78.80;;;;;;4955507;28;20111;-68
2022/06/30 12:51:58;;;;;;;9.00;4.22;;;27.30;77.40;;;;;;4955672;29;20054;-69
2022/06/30 12:54:26;;;;;;;9.90;3.58;;;27.40;77.00;;;;;;4955490;29;20484;-68
2022/06/30 12:57:02;;;;;;;8.55;3.75;;;27.40;76.80;;;;;;4955585;29;20035;-69
2022/06/30 12:59:28;;;;;;;9.52;3.95;;;27.50;77.30;;;;;;4955443;28;20102;-69
2022/06/30 13:01:57;;;;;;;10.38;3.70;;;27.50;77.80;;;;;;4955498;28;20459;-68
2022/06/30 13:04:25;;;;;;;11.27;4.35;;;27.60;78.50;;;;;;4954121;29;20050;-68
2022/06/30 13:06:53;;;;;;;10.73;4.40;;;27.60;79.70;;;;;;4953451;28;20055;-68